createdAt,value
2022-08-03T00:00:38.202Z,98879.13
2022-08-03T00:03:05.672Z,98866.75
2022-08-03T00:05:33.560Z,98867.63
2022-08-03T00:08:01.637Z,98871.47
2022-08-03T00:10:30.157Z,98869.41
2022-08-03T00:12:57.547Z,98862.38
2022-08-03T00:15:27.447Z,98867.16
2022-08-03T00:17:54.642Z,98861.28
2022-08-03T00:20:22.491Z,98864.31
2022-08-03T00:22:51.440Z,98867.34
2022-08-03T00:25:19.150Z,98867.09
2022-08-03T00:27:48.369Z,98865.16
2022-08-03T00:30:18.177Z,98864.97
2022-08-03T00:32:45.717Z,98860.03
2022-08-03T00:35:26.640Z,98864.75
2022-08-03T00:38:01.126Z,98855.88
2022-08-03T00:40:29.365Z,98857.06
2022-08-03T00:43:04.344Z,98859.81
2022-08-03T00:45:36.233Z,98861.16
2022-08-03T00:48:07.146Z,98859.03
2022-08-03T00:50:59.990Z,98868.25
2022-08-03T00:53:27.963Z,98858.56
2022-08-03T00:55:55.378Z,98863.19
2022-08-03T00:58:24.150Z,98862.56
2022-08-03T01:02:12.301Z,98858.06
2022-08-03T01:04:39.645Z,98861.59
2022-08-03T01:08:22.607Z,98866.09
2022-08-03T01:12:07.613Z,98867.13
2022-08-03T01:14:50.812Z,98858.50
2022-08-03T01:18:33.671Z,98860.66
2022-08-03T01:21:12.594Z,98857.09
2022-08-03T01:24:56.922Z,98850.19
2022-08-03T01:27:56.888Z,98842.56
2022-08-03T01:30:33.866Z,98838.41
2022-08-03T01:34:20.104Z,98845.63
2022-08-03T01:36:57.039Z,98833.91
2022-08-03T01:39:26.508Z,98834.66
2022-08-03T01:42:06.014Z,98839.13
2022-08-03T01:45:48.707Z,98827.03
2022-08-03T01:49:31.199Z,98836.72
2022-08-03T01:52:04.562Z,98838.59
2022-08-03T01:55:05.901Z,98829.50
2022-08-03T01:58:04.843Z,98836.66
2022-08-03T02:00:27.378Z,98819.69
2022-08-03T02:02:58.837Z,98824.94
2022-08-03T02:05:30.021Z,98828.47
2022-08-03T02:07:58.635Z,98827.75
2022-08-03T02:10:35.116Z,98822.72
2022-08-03T02:13:12.341Z,98833.94
2022-08-03T02:15:41.997Z,98827.44
2022-08-03T02:18:11.284Z,98827.09
2022-08-03T02:20:47.631Z,98827.19
2022-08-03T02:23:18.705Z,98833.44
2022-08-03T02:25:54.352Z,98833.47
2022-08-03T02:28:30.522Z,98821.78
2022-08-03T02:31:03.333Z,98833.47
2022-08-03T02:33:49.531Z,98832.00
2022-08-03T02:36:25.749Z,98835.13
2022-08-03T02:38:59.785Z,98828.03
2022-08-03T02:41:48.929Z,98832.00
2022-08-03T02:44:25.705Z,98836.06
2022-08-03T02:47:03.811Z,98833.19
2022-08-03T02:49:40.551Z,98830.00
2022-08-03T02:52:23.819Z,98827.09
2022-08-03T02:54:59.753Z,98831.19
2022-08-03T02:57:31.715Z,98824.06
2022-08-03T03:00:07.221Z,98827.50
2022-08-03T03:02:37.028Z,98825.50
2022-08-03T03:05:55.015Z,98823.28
2022-08-03T03:07:54.745Z,98829.72
2022-08-03T03:10:24.873Z,98834.59
2022-08-03T03:12:57.788Z,98828.50
2022-08-03T03:15:30.704Z,98824.06
2022-08-03T03:18:00.352Z,98829.22
2022-08-03T03:20:30.706Z,98825.56
2022-08-03T03:23:02.692Z,98823.22
2022-08-03T03:25:35.864Z,98819.88
2022-08-03T03:28:06.423Z,98824.69
2022-08-03T03:30:35.133Z,98820.22
2022-08-03T03:33:05.874Z,98820.59
2022-08-03T03:35:38.803Z,98819.03
2022-08-03T03:38:07.442Z,98823.00
2022-08-03T03:40:39.468Z,98822.72
2022-08-03T03:43:12.985Z,98821.22
2022-08-03T03:45:44.082Z,98821.47
2022-08-03T03:48:14.036Z,98825.13
2022-08-03T03:50:41.817Z,98819.22
2022-08-03T03:53:13.691Z,98824.59
2022-08-03T03:56:02.208Z,98824.00
2022-08-03T03:58:30.466Z,98830.56
2022-08-03T04:01:01.632Z,98824.13
2022-08-03T04:03:29.472Z,98833.22
2022-08-03T04:06:16.604Z,98824.22
2022-08-03T04:09:19.028Z,98836.69
2022-08-03T04:11:55.558Z,98833.28
2022-08-03T04:14:35.459Z,98827.66
2022-08-03T04:17:07.677Z,98840.94
2022-08-03T04:19:43.969Z,98837.09
2022-08-03T04:22:26.648Z,98839.84
2022-08-03T04:25:06.187Z,98827.13
2022-08-03T04:27:41.712Z,98836.25
2022-08-03T04:30:10.821Z,98828.22
2022-08-03T04:32:45.851Z,98830.03
2022-08-03T04:35:13.607Z,98840.03
2022-08-03T04:37:49.805Z,98845.31
2022-08-03T04:40:35.076Z,98844.50
2022-08-03T04:43:04.909Z,98854.88
2022-08-03T04:45:35.299Z,98854.03
2022-08-03T04:48:04.988Z,98858.44
2022-08-03T04:50:33.773Z,98859.84
2022-08-03T04:53:07.651Z,98863.75
2022-08-03T04:55:36.564Z,98859.31
2022-08-03T04:58:04.956Z,98864.16
2022-08-03T05:00:33.011Z,98858.13
2022-08-03T05:03:00.476Z,98871.22
2022-08-03T05:05:48.799Z,98871.00
2022-08-03T05:08:27.850Z,98867.19
2022-08-03T05:10:59.385Z,98867.00
2022-08-03T05:13:27.106Z,98869.53
2022-08-03T05:15:54.737Z,98878.63
2022-08-03T05:18:25.046Z,98882.53
2022-08-03T05:20:52.384Z,98891.31
2022-08-03T05:23:20.009Z,98891.81
2022-08-03T05:25:50.064Z,98892.75
2022-08-03T05:28:17.975Z,98890.81
2022-08-03T05:30:45.469Z,98889.63
2022-08-03T05:33:15.781Z,98889.06
2022-08-03T05:35:56.016Z,98887.97
2022-08-03T05:38:34.350Z,98887.97
2022-08-03T05:41:21.060Z,98887.88
2022-08-03T05:43:54.838Z,98894.41
2022-08-03T05:46:25.272Z,98889.03
2022-08-03T05:48:52.893Z,98890.06
2022-08-03T05:51:25.658Z,98893.69
2022-08-03T05:53:52.886Z,98891.91
2022-08-03T05:56:27.686Z,98897.59
2022-08-03T05:58:55.198Z,98893.31
2022-08-03T06:01:23.024Z,98896.00
2022-08-03T06:03:52.189Z,98898.25
2022-08-03T06:06:20.055Z,98892.34
2022-08-03T06:08:48.778Z,98887.50
2022-08-03T06:11:16.788Z,98891.94
2022-08-03T06:13:45.618Z,98898.53
2022-08-03T06:16:12.990Z,98892.34
2022-08-03T06:18:44.225Z,98887.25
2022-08-03T06:21:15.442Z,98891.09
2022-08-03T06:23:54.764Z,98895.25
2022-08-03T06:26:26.258Z,98896.06
2022-08-03T06:28:55.131Z,98897.59
2022-08-03T06:31:33.254Z,98900.81
2022-08-03T06:34:34.303Z,98904.13
2022-08-03T06:37:01.785Z,98892.75
2022-08-03T06:39:29.548Z,98895.56
2022-08-03T06:41:59.877Z,98900.78
2022-08-03T06:44:27.457Z,98894.19
2022-08-03T06:46:55.837Z,98903.44
2022-08-03T06:49:23.409Z,98900.59
2022-08-03T06:52:03.330Z,98898.94
2022-08-03T06:54:34.166Z,98902.78
2022-08-03T06:57:01.516Z,98908.53
2022-08-03T07:00:07.870Z,98905.56
2022-08-03T07:02:20.406Z,98908.06
2022-08-03T07:04:49.695Z,98913.03
2022-08-03T07:07:17.773Z,98912.56
2022-08-03T07:09:57.647Z,98911.84
2022-08-03T07:12:30.536Z,98907.25
2022-08-03T07:15:03.448Z,98908.25
2022-08-03T07:17:35.759Z,98896.19
2022-08-03T07:20:10.463Z,98900.47
2022-08-03T07:22:37.846Z,98900.53
2022-08-03T07:25:07.217Z,98894.25
2022-08-03T07:27:34.718Z,98897.84
2022-08-03T07:30:02.984Z,98903.66
2022-08-03T07:32:31.510Z,98892.59
2022-08-03T07:35:01.261Z,98888.97
2022-08-03T07:37:56.108Z,98891.59
2022-08-03T07:40:28.189Z,98892.31
2022-08-03T07:43:00.523Z,98898.91
2022-08-03T07:45:28.129Z,98890.84
2022-08-03T07:47:55.537Z,98901.00
2022-08-03T07:50:23.468Z,98899.16
2022-08-03T07:52:56.046Z,98892.56
2022-08-03T07:55:25.927Z,98889.94
2022-08-03T07:58:12.279Z,98896.63
2022-08-03T08:00:39.831Z,98878.78
2022-08-03T08:03:07.236Z,98888.16
2022-08-03T08:05:35.076Z,98881.03
2022-08-03T08:26:39.422Z,98870.94
2022-08-03T08:29:08.147Z,98879.03
2022-08-03T08:31:36.381Z,98869.56
2022-08-03T08:34:11.210Z,98869.00
2022-08-03T08:36:39.790Z,98863.00
2022-08-03T08:40:24.269Z,98851.75
2022-08-03T08:44:10.280Z,98863.00
2022-08-03T08:47:55.745Z,98868.88
2022-08-03T08:50:28.346Z,98858.34
2022-08-03T08:54:11.982Z,98850.25
2022-08-03T08:56:43.307Z,98854.56
2022-08-03T08:59:11.662Z,98857.47
2022-08-03T09:01:45.735Z,98853.44
2022-08-03T09:05:55.060Z,98854.22
2022-08-03T09:08:26.372Z,98846.06
2022-08-03T09:12:37.469Z,98843.19
2022-08-03T09:15:36.031Z,98851.34
2022-08-03T09:18:06.319Z,98842.81
2022-08-03T09:21:49.452Z,98830.31
2022-08-03T09:25:32.148Z,98825.53
2022-08-03T09:29:15.592Z,98836.97
2022-08-03T09:31:50.053Z,98828.84
2022-08-03T09:35:53.041Z,98829.31
2022-08-03T09:38:28.639Z,98830.34
